TAF and METAR

Decoding for American and Canadian METARs and TAFs is not fully implemented.

Could not understand the following METAR

KMDJ 201435Z AUTO 11017KT 10SM CLR 29/22 A3009 RMK A01
No TAF available for Miss Canyon 311A
Miss Canyon 311A in United States of America at 31m

Latest 5 airports